Time;durP1;ratioP1;P1;durP2;ratioP2;P2;SDS_P1;SDS_P2;PMS_P1;PMS_P2;Temp;Humidity;BMP_temperature;BMP_pressure;BME280_temperature;BME280_humidity;BME280_pressure;Samples;Min_cycle;Max_cycle;Signal;HPM_P1;HPM_P2
2022/08/30 00:01:04;;;;;;;9.37;5.27;;;;;;;20.58;54.16;98234.78;8249973;28;20247;-75
2022/08/30 00:05:09;;;;;;;9.97;5.07;;;;;;;20.50;54.43;98240.66;8249753;28;20245;-75
2022/08/30 00:09:11;;;;;;;8.17;5.00;;;;;;;20.41;54.63;98236.16;8249785;28;20594;-75
2022/08/30 00:13:14;;;;;;;10.83;5.80;;;;;;;20.42;54.70;98235.16;8249892;28;20525;-75
2022/08/30 00:17:18;;;;;;;10.57;5.53;;;;;;;20.30;54.95;98228.28;8249687;28;20249;-76
2022/08/30 00:21:22;;;;;;;11.63;4.97;;;;;;;20.22;54.58;98226.28;8249647;28;20241;-75
2022/08/30 00:25:25;;;;;;;12.10;4.70;;;;;;;20.22;54.77;98238.56;8249210;28;20552;-75
2022/08/30 00:29:29;;;;;;;11.00;5.13;;;;;;;20.23;54.86;98237.63;8251862;28;20529;-75
2022/08/30 00:33:31;;;;;;;10.03;5.03;;;;;;;20.09;54.83;98236.09;8255524;28;20242;-75
2022/08/30 00:37:36;;;;;;;9.53;5.00;;;;;;;20.13;54.95;98242.78;8255616;28;20341;-75
2022/08/30 00:41:39;;;;;;;8.87;5.10;;;;;;;20.14;55.68;98240.97;8256189;28;20234;-75
2022/08/30 00:45:42;;;;;;;11.73;5.27;;;;;;;20.19;55.21;98238.81;8255311;28;20239;-75
2022/08/30 00:49:48;;;;;;;9.53;4.83;;;;;;;20.05;55.69;98238.13;8255268;28;20253;-75
2022/08/30 00:53:55;;;;;;;8.27;4.97;;;;;;;20.01;55.10;98241.94;8254686;28;20454;-74
2022/08/30 00:58:00;;;;;;;8.10;5.23;;;;;;;19.94;55.54;98232.88;8254667;28;20236;-74
2022/08/30 01:02:06;;;;;;;9.27;5.43;;;;;;;20.04;55.44;98231.19;8254721;28;20236;-75
2022/08/30 01:06:09;;;;;;;6.20;5.10;;;;;;;19.96;55.76;98227.50;8254750;28;20226;-75
2022/08/30 01:10:14;;;;;;;10.43;5.20;;;;;;;19.89;55.61;98233.22;8254266;28;20230;-75
2022/08/30 01:14:17;;;;;;;7.43;5.13;;;;;;;19.99;55.26;98229.88;8254392;28;20388;-74
2022/08/30 01:18:20;;;;;;;10.50;5.10;;;;;;;19.87;55.41;98231.66;8254299;28;20503;-75
2022/08/30 01:22:30;;;;;;;9.70;5.47;;;;;;;19.76;55.82;98224.63;8254143;28;20246;-75
2022/08/30 01:26:35;;;;;;;7.97;4.93;;;;;;;19.82;55.59;98228.56;8254154;28;20234;-75
2022/08/30 01:30:39;;;;;;;8.13;5.27;;;;;;;19.85;55.30;98225.69;8253926;28;20242;-75
2022/08/30 01:34:42;;;;;;;6.67;5.03;;;;;;;19.76;55.79;98222.00;8253652;28;20243;-75
2022/08/30 01:38:47;;;;;;;11.33;5.37;;;;;;;19.69;55.98;98223.41;8253570;28;20235;-75
2022/08/30 01:42:52;;;;;;;9.50;5.10;;;;;;;19.69;55.95;98229.50;8253193;28;20230;-74
2022/08/30 01:46:54;;;;;;;8.87;5.20;;;;;;;19.59;55.96;98231.19;8253335;28;20244;-74
2022/08/30 01:50:57;;;;;;;11.63;5.97;;;;;;;19.53;55.70;98221.97;8253291;28;20236;-74
2022/08/30 01:55:00;;;;;;;10.07;5.90;;;;;;;19.48;55.83;98226.75;8252788;28;20230;-75
2022/08/30 01:59:05;;;;;;;10.67;6.10;;;;;;;19.46;55.87;98240.94;8252736;28;20244;-75
2022/08/30 02:03:08;;;;;;;10.17;5.90;;;;;;;19.37;56.00;98228.53;8252716;28;20226;-75
2022/08/30 02:07:11;;;;;;;8.77;5.53;;;;;;;19.36;55.83;98227.66;8252831;28;20243;-75
2022/08/30 02:11:18;;;;;;;8.97;5.90;;;;;;;19.38;56.17;98233.66;8252930;28;20297;-75
2022/08/30 02:15:22;;;;;;;7.77;5.83;;;;;;;19.38;56.13;98230.16;8252420;28;20245;-75
2022/08/30 02:19:25;;;;;;;10.97;6.00;;;;;;;19.32;56.33;98229.72;8252469;28;20246;-75
2022/08/30 02:23:28;;;;;;;8.70;5.60;;;;;;;19.28;56.69;98232.66;8252230;28;20234;-75
2022/08/30 02:27:31;;;;;;;8.07;5.13;;;;;;;19.27;56.10;98231.00;8252136;28;20430;-75
2022/08/30 02:31:35;;;;;;;9.87;5.40;;;;;;;19.26;56.44;98229.31;8252148;28;20525;-75
2022/08/30 02:35:38;;;;;;;9.07;5.50;;;;;;;19.24;56.55;98225.97;8251678;28;20237;-75
2022/08/30 02:39:41;;;;;;;7.20;5.23;;;;;;;19.26;56.60;98221.44;8251688;28;20452;-75
2022/08/30 02:43:44;;;;;;;12.50;5.53;;;;;;;19.22;56.50;98225.25;8251494;28;20235;-75
2022/08/30 02:47:48;;;;;;;10.73;5.47;;;;;;;19.19;56.51;98231.59;8251630;28;20262;-76
2022/08/30 02:51:51;;;;;;;8.77;4.90;;;;;;;19.12;56.60;98233.00;8250383;28;20238;-75
2022/08/30 02:55:54;;;;;;;9.53;5.40;;;;;;;19.06;57.06;98223.78;8251374;28;20249;-75
2022/08/30 03:00:00;;;;;;;10.80;5.13;;;;;;;19.00;56.75;98221.63;8250910;28;20241;-75
2022/08/30 03:04:04;;;;;;;12.97;5.53;;;;;;;19.03;56.76;98216.13;8251082;28;20243;-75
2022/08/30 03:08:08;;;;;;;10.60;5.37;;;;;;;19.01;56.89;98218.03;8250852;28;20246;-75
2022/08/30 03:12:12;;;;;;;9.67;5.10;;;;;;;18.96;56.79;98225.41;8251014;28;20238;-75
2022/08/30 03:16:15;;;;;;;11.70;5.33;;;;;;;18.95;56.98;98219.34;8250748;28;20231;-75
2022/08/30 03:20:20;;;;;;;10.33;5.57;;;;;;;18.93;56.89;98226.50;8250827;28;20238;-75
2022/08/30 03:24:23;;;;;;;10.23;4.57;;;;;;;18.93;56.97;98221.25;8250554;28;20242;-75
2022/08/30 03:28:25;;;;;;;9.03;5.50;;;;;;;18.90;56.97;98218.84;8250472;28;20237;-75
2022/08/30 03:32:28;;;;;;;8.10;5.53;;;;;;;18.88;56.82;98220.75;8250301;28;20243;-75
2022/08/30 03:36:32;;;;;;;11.90;5.07;;;;;;;18.75;56.99;98225.19;8250288;28;20245;-75
2022/08/30 03:40:35;;;;;;;7.80;5.10;;;;;;;18.85;56.78;98230.63;8250322;28;20530;-75
2022/08/30 03:44:39;;;;;;;10.63;5.73;;;;;;;18.77;57.17;98231.16;8250187;28;20239;-75
2022/08/30 03:48:43;;;;;;;10.83;5.67;;;;;;;18.78;56.87;98232.03;8250291;28;20406;-75
2022/08/30 03:52:47;;;;;;;6.60;5.40;;;;;;;18.83;56.65;98235.16;8249923;28;20234;-75
2022/08/30 03:56:50;;;;;;;8.03;5.17;;;;;;;18.72;56.78;98228.88;8249625;28;20238;-75
2022/08/30 04:00:53;;;;;;;12.37;5.70;;;;;;;18.69;56.87;98241.38;8249853;28;20547;-75
2022/08/30 04:04:56;;;;;;;6.90;5.40;;;;;;;18.67;57.09;98241.50;8254863;28;20237;-75
2022/08/30 04:09:00;;;;;;;8.33;6.10;;;;;;;18.64;56.50;98240.88;8256205;28;20229;-75
2022/08/30 04:13:04;;;;;;;10.93;6.53;;;;;;;18.63;56.87;98242.66;8256182;28;20237;-75
2022/08/30 04:17:07;;;;;;;12.93;6.47;;;;;;;18.55;56.94;98245.84;8256015;28;20242;-75
2022/08/30 04:21:10;;;;;;;9.63;6.80;;;;;;;18.57;56.82;98237.88;8256024;28;20230;-75
2022/08/30 04:25:17;;;;;;;11.67;6.87;;;;;;;18.49;57.28;98243.69;8255791;28;20241;-76
2022/08/30 04:29:20;;;;;;;9.03;5.97;;;;;;;18.51;56.94;98243.56;8255636;28;20238;-75
2022/08/30 04:33:23;;;;;;;10.20;6.60;;;;;;;18.48;56.78;98241.16;8255491;28;20425;-75
2022/08/30 04:37:26;;;;;;;8.97;6.60;;;;;;;18.47;56.91;98250.81;8255611;28;20235;-75
2022/08/30 04:41:30;;;;;;;9.87;6.40;;;;;;;18.48;57.09;98252.47;8255372;28;20268;-75
2022/08/30 04:45:33;;;;;;;9.20;6.70;;;;;;;18.47;57.19;98255.25;8255362;28;20234;-77
2022/08/30 04:49:36;;;;;;;10.77;6.13;;;;;;;18.47;57.34;98256.06;8255375;28;20241;-75
2022/08/30 04:53:39;;;;;;;10.80;6.23;;;;;;;18.48;56.90;98268.22;8255122;28;20235;-76
2022/08/30 04:57:44;;;;;;;9.07;6.30;;;;;;;18.51;56.73;98270.63;8254825;28;20242;-77
2022/08/30 05:01:47;;;;;;;10.37;6.80;;;;;;;18.52;56.96;98274.06;8254674;28;20302;-77
2022/08/30 05:05:50;;;;;;;13.63;6.00;;;;;;;18.52;56.96;98274.06;8254229;28;20230;-77
2022/08/30 05:09:53;;;;;;;9.40;6.20;;;;;;;18.59;57.31;98277.94;8254606;28;20246;-77
2022/08/30 05:13:58;;;;;;;13.53;6.70;;;;;;;18.61;57.09;98277.84;8253652;28;20289;-77
2022/08/30 05:18:01;;;;;;;8.80;6.40;;;;;;;18.67;57.02;98290.50;8254208;28;20245;-78
2022/08/30 05:22:04;;;;;;;8.67;6.27;;;;;;;18.68;56.83;98276.44;8254117;28;20560;-76
2022/08/30 05:26:09;;;;;;;9.37;6.30;;;;;;;18.76;56.66;98277.56;8254243;28;20243;-75
2022/08/30 05:30:15;;;;;;;9.90;6.30;;;;;;;18.89;56.72;98271.44;8254013;28;20231;-76
2022/08/30 05:34:18;;;;;;;11.93;7.70;;;;;;;18.98;56.38;98278.63;8253533;28;20245;-77
2022/08/30 05:38:21;;;;;;;11.93;7.13;;;;;;;19.13;55.80;98269.63;8253694;28;20522;-77
2022/08/30 05:42:23;;;;;;;11.23;6.80;;;;;;;19.32;56.10;98274.34;8253361;28;20245;-78
2022/08/30 05:46:31;;;;;;;16.13;7.00;;;;;;;19.46;55.60;98261.97;8253447;28;20233;-76
2022/08/30 05:50:39;;;;;;;9.10;6.50;;;;;;;19.64;55.95;98271.03;8253313;28;20233;-77
2022/08/30 05:54:42;;;;;;;14.93;6.00;;;;;;;19.89;55.48;98267.38;8253212;28;20229;-78
2022/08/30 05:58:45;;;;;;;12.97;6.53;;;;;;;19.80;54.26;98262.00;8253173;28;20265;-78
2022/08/30 06:02:53;;;;;;;12.53;6.53;;;;;;;20.08;54.31;98269.41;8252548;28;20247;-77
2022/08/30 06:06:56;;;;;;;11.67;6.10;;;;;;;20.30;53.72;98273.81;8252839;28;20550;-78
2022/08/30 06:10:59;;;;;;;15.53;7.03;;;;;;;20.28;53.43;98280.16;8252840;28;20234;-77
2022/08/30 06:15:01;;;;;;;12.97;6.33;;;;;;;20.23;53.67;98283.13;8252214;28;20236;-78
2022/08/30 06:19:07;;;;;;;12.57;6.33;;;;;;;20.61;52.49;98284.53;8252471;28;20238;-79
2022/08/30 06:23:10;;;;;;;18.47;7.00;;;;;;;20.56;51.95;98289.31;8252310;28;20229;-78
2022/08/30 06:27:14;;;;;;;14.27;6.20;;;;;;;20.70;51.91;98282.97;8251480;28;20241;-78
2022/08/30 06:31:18;;;;;;;14.63;5.87;;;;;;;21.04;51.57;98282.84;8252151;28;20229;-78
2022/08/30 06:35:23;;;;;;;15.10;6.13;;;;;;;21.15;50.95;98282.81;8252051;28;20257;-79
2022/08/30 06:39:25;;;;;;;13.93;5.40;;;;;;;21.36;50.97;98287.22;8252010;28;20243;-79
2022/08/30 06:43:29;;;;;;;13.33;6.07;;;;;;;21.51;50.99;98288.59;8251567;28;20234;-79
2022/08/30 06:47:32;;;;;;;12.30;6.07;;;;;;;21.70;50.42;98282.63;8251393;28;20240;-80
2022/08/30 06:51:43;;;;;;;12.17;5.77;;;;;;;21.73;49.98;98282.38;8434849;27;1356008;-75
2022/08/30 06:55:46;;;;;;;13.37;5.10;;;;;;;21.95;49.55;98293.69;8476212;28;20228;-73
2022/08/30 06:59:48;;;;;;;10.17;5.53;;;;;;;21.67;50.74;98296.91;8509598;27;20243;-73
2022/08/30 07:03:57;;;;;;;9.00;5.37;;;;;;;21.72;49.78;98293.03;8509813;27;20233;-73
2022/08/30 07:08:01;;;;;;;6.90;5.00;;;;;;;22.00;49.40;98291.50;8509581;27;20228;-73
2022/08/30 07:12:05;;;;;;;10.73;5.63;;;;;;;21.91;48.81;98293.13;8509816;27;20433;-73
2022/08/30 07:16:11;;;;;;;11.97;5.40;;;;;;;21.95;49.21;98294.56;8509740;27;20230;-78
2022/08/30 07:20:15;;;;;;;11.60;5.13;;;;;;;22.28;48.66;98297.06;8509629;27;20504;-73
2022/08/30 07:24:20;;;;;;;10.97;5.53;;;;;;;22.13;48.35;98297.38;8509001;27;20236;-73
2022/08/30 07:28:23;;;;;;;12.43;5.50;;;;;;;22.35;48.70;98298.19;8509119;27;20233;-74
2022/08/30 07:32:25;;;;;;;14.07;5.50;;;;;;;22.60;48.60;98302.97;8509257;27;20228;-74
2022/08/30 07:36:28;;;;;;;11.87;5.57;;;;;;;22.78;48.37;98305.78;8508779;27;20228;-73
2022/08/30 07:40:33;;;;;;;13.40;5.70;;;;;;;22.79;48.91;98307.47;8508989;27;20431;-73
2022/08/30 07:44:36;;;;;;;17.77;6.50;;;;;;;22.62;48.74;98310.78;8508827;27;20425;-73
2022/08/30 07:48:38;;;;;;;14.63;5.87;;;;;;;23.03;47.73;98308.88;8508521;27;20236;-73
2022/08/30 07:52:42;;;;;;;9.63;5.10;;;;;;;23.30;48.00;98310.81;8508548;27;20417;-73
2022/08/30 07:56:47;;;;;;;9.20;5.17;;;;;;;23.35;46.98;98315.69;8508279;27;20235;-73
2022/08/30 08:00:50;;;;;;;12.27;5.30;;;;;;;23.62;46.40;98299.09;8497921;27;20229;-73
2022/08/30 08:04:53;;;;;;;11.43;5.80;;;;;;;23.49;46.59;98304.69;8485361;27;20225;-73
2022/08/30 08:09:00;;;;;;;14.57;5.67;;;;;;;;;;8485458;28;20264;-72
2022/08/30 08:13:05;;;;;;;11.87;5.20;;;;;;;23.59;46.69;98309.97;8485349;27;20420;-72
2022/08/30 08:17:08;;;;;;;13.97;5.50;;;;;;;23.52;46.81;98306.22;8485106;28;20267;-72
2022/08/30 08:21:11;;;;;;;10.87;5.90;;;;;;;23.85;46.45;98298.78;8485013;27;20516;-73
2022/08/30 08:25:14;;;;;;;10.57;5.60;;;;;;;24.43;45.60;98292.41;8484827;27;20234;-72
2022/08/30 08:29:19;;;;;;;13.87;5.73;;;;;;;24.68;44.26;98304.16;8484705;27;20528;-76
2022/08/30 08:33:23;;;;;;;17.33;6.10;;;;;;;25.21;44.11;98302.47;8484429;28;20264;-74
2022/08/30 08:37:26;;;;;;;11.10;5.50;;;;;;;25.89;42.17;98294.72;8484266;27;20416;-73
2022/08/30 08:41:42;;;;;;;14.33;5.43;;;;;;;26.27;41.11;98297.91;8484142;27;20221;-74
2022/08/30 08:45:51;;;;;;;13.07;5.43;;;;;;;26.67;40.68;98295.56;8484201;27;20236;-75
2022/08/30 08:49:57;;;;;;;13.87;5.73;;;;;;;26.96;39.28;98296.94;8483373;27;20228;-74
2022/08/30 08:54:05;;;;;;;14.47;5.23;;;;;;;27.21;39.64;98295.97;8483592;28;20238;-75
2022/08/30 08:58:08;;;;;;;18.27;5.80;;;;;;;27.45;38.96;98295.13;8483876;27;20393;-74
2022/08/30 09:02:24;;;;;;;9.03;4.73;;;;;;;27.96;37.68;98304.75;8483513;28;20228;-74
2022/08/30 09:06:47;;;;;;;12.43;4.67;;;;;;;28.11;36.74;98300.38;8483113;28;20227;-75
2022/08/30 09:10:55;;;;;;;9.50;5.00;;;;;;;28.37;35.36;98305.44;8482824;27;20240;-74
2022/08/30 09:15:04;;;;;;;10.50;4.40;;;;;;;28.55;35.99;98297.19;8482655;28;20619;-75
2022/08/30 09:19:08;;;;;;;8.20;4.13;;;;;;;28.77;36.38;98294.72;8483209;28;20238;-75
2022/08/30 09:23:23;;;;;;;7.30;4.60;;;;;;;28.97;34.31;98301.28;8483011;27;20240;-74
2022/08/30 09:27:29;;;;;;;8.50;4.40;;;;;;;29.41;34.89;98295.28;8482864;28;20229;-74
2022/08/30 09:31:33;;;;;;;7.67;4.03;;;;;;;29.36;34.45;98295.00;8482811;27;20228;-74
2022/08/30 09:35:39;;;;;;;7.53;4.83;;;;;;;28.89;33.63;98282.69;8482745;28;20239;-74
2022/08/30 09:39:43;;;;;;;8.93;4.30;;;;;;;29.24;35.17;98288.44;8482432;27;20230;-74
2022/08/30 09:44:04;;;;;;;10.40;4.60;;;;;;;29.61;34.45;98292.94;8482165;28;20247;-74
2022/08/30 09:48:28;;;;;;;8.73;4.60;;;;;;;29.86;34.82;98287.38;8481788;28;20238;-74
2022/08/30 09:52:39;;;;;;;9.50;4.03;;;;;;;30.02;35.29;98278.34;8481769;28;20336;-74
2022/08/30 09:56:50;;;;;;;9.50;4.57;;;;;;;30.08;33.84;98280.25;8481700;28;20251;-74
2022/08/30 10:00:59;;;;;;;6.87;4.23;;;;;;;30.07;33.45;98277.81;8481491;28;20229;-74
2022/08/30 10:05:06;;;;;;;9.77;4.37;;;;;;;30.07;34.33;98269.78;8481704;28;20236;-74
2022/08/30 10:09:19;;;;;;;8.90;4.43;;;;;;;30.42;33.77;98267.38;8481375;28;20550;-74
2022/08/30 10:13:46;;;;;;;7.50;4.33;;;;;;;30.51;31.96;98261.72;8481516;27;20444;-74
2022/08/30 10:17:56;;;;;;;9.93;4.00;;;;;;;30.52;32.04;98254.53;8480675;28;20227;-74
2022/08/30 10:22:02;;;;;;;8.00;4.07;;;;;;;30.48;32.68;98256.78;8481040;28;20243;-74
2022/08/30 10:26:12;;;;;;;9.20;4.17;;;;;;;30.59;32.84;98253.56;8480950;28;20307;-74
2022/08/30 10:30:21;;;;;;;5.93;3.60;;;;;;;30.85;31.00;98243.38;8481043;28;20554;-74
2022/08/30 10:34:27;;;;;;;9.03;3.30;;;;;;;31.10;29.97;98228.59;8480977;28;20251;-74
2022/08/30 10:38:32;;;;;;;6.10;3.60;;;;;;;31.02;30.13;98234.09;8480907;28;20230;-74
2022/08/30 10:42:38;;;;;;;6.47;3.60;;;;;;;30.76;30.56;98221.28;8480785;28;20232;-74
2022/08/30 10:46:53;;;;;;;9.30;3.67;;;;;;;31.04;29.37;98218.69;8480846;28;20233;-74
2022/08/30 10:50:58;;;;;;;8.40;3.80;;;;;;;31.43;29.13;98227.19;8480037;28;20237;-73
2022/08/30 10:55:07;;;;;;;7.90;3.70;;;;;;;31.41;28.94;98218.53;8480779;28;20242;-73
2022/08/30 10:59:13;;;;;;;6.43;3.40;;;;;;;31.46;28.69;98221.47;8480498;28;20238;-73
2022/08/30 11:03:38;;;;;;;6.07;3.50;;;;;;;31.66;29.51;98225.13;8480722;28;20243;-73
2022/08/30 11:07:48;;;;;;;8.23;3.70;;;;;;;31.91;28.61;98216.56;8480446;28;20235;-72
2022/08/30 11:12:22;;;;;;;9.40;3.63;;;;;;;32.06;28.09;98206.59;8479585;28;20303;-73
2022/08/30 11:16:36;;;;;;;5.97;3.57;;;;;;;32.12;26.21;98203.13;8475353;28;20336;-73
2022/08/30 11:20:42;;;;;;;5.50;2.80;;;;;;;32.11;26.87;98209.50;8480312;28;20231;-73
2022/08/30 11:25:05;;;;;;;5.17;2.90;;;;;;;32.46;26.13;98200.53;8480477;28;20225;-72
2022/08/30 11:29:44;;;;;;;6.30;3.80;;;;;;;32.51;27.05;98212.28;8480098;28;20228;-73
2022/08/30 11:33:52;;;;;;;5.10;3.40;;;;;;;32.74;25.83;98203.06;8479651;28;20228;-72
2022/08/30 11:37:54;;;;;;;7.57;3.37;;;;;;;32.45;26.07;98193.53;8485471;28;20252;-73
2022/08/30 11:42:10;;;;;;;4.90;3.10;;;;;;;32.64;26.27;98190.06;8486172;28;20236;-73
2022/08/30 11:46:17;;;;;;;5.67;3.20;;;;;;;32.70;25.22;98188.44;8486174;28;20462;-72
2022/08/30 11:50:24;;;;;;;6.67;3.40;;;;;;;32.58;24.89;98190.06;8485571;27;20258;-73
2022/08/30 11:54:34;;;;;;;6.97;3.47;;;;;;;32.52;26.63;98197.06;8486205;28;20546;-72
2022/08/30 11:58:44;;;;;;;6.07;3.07;;;;;;;32.73;24.39;98196.09;8486034;28;20252;-73
2022/08/30 12:02:52;;;;;;;7.03;3.37;;;;;;;32.57;25.99;98191.09;8485908;28;20277;-74
2022/08/30 12:06:59;;;;;;;6.53;3.27;;;;;;;32.48;26.12;98185.06;8485196;28;20506;-73
2022/08/30 12:11:04;;;;;;;6.23;3.00;;;;;;;32.53;25.77;98179.94;8485298;28;20530;-74
2022/08/30 12:15:07;;;;;;;3.60;2.90;;;;;;;32.73;25.71;98183.50;8485062;28;20246;-73
2022/08/30 12:19:15;;;;;;;5.70;2.80;;;;;;;32.59;24.69;98191.72;8484815;27;20231;-73
2022/08/30 12:23:30;;;;;;;5.03;3.23;;;;;;;32.55;23.98;98183.22;8484343;28;20229;-73
2022/08/30 12:27:33;;;;;;;3.90;2.53;;;;;;;32.42;24.49;98178.66;8483851;28;20231;-74
2022/08/30 12:31:40;;;;;;;5.57;2.93;;;;;;;32.21;23.96;98174.28;8484098;28;20227;-74
2022/08/30 12:35:44;;;;;;;4.90;3.03;;;;;;;32.59;23.57;98181.00;8484029;28;20228;-74
2022/08/30 12:39:49;;;;;;;3.93;2.60;;;;;;;32.94;23.14;98170.91;8483826;27;20232;-74
2022/08/30 12:43:56;;;;;;;4.03;2.40;;;;;;;33.07;22.07;98173.59;8483386;27;20237;-73
2022/08/30 12:48:03;;;;;;;5.33;2.50;;;;;;;32.82;22.83;98169.88;8483160;27;20238;-73
2022/08/30 12:52:17;;;;;;;4.23;2.40;;;;;;;33.06;22.55;98165.75;8483268;28;20229;-73
2022/08/30 12:56:22;;;;;;;5.10;2.57;;;;;;;33.15;22.14;98161.00;8483091;28;20258;-73
2022/08/30 13:00:46;;;;;;;3.83;2.37;;;;;;;33.20;22.74;98163.91;8484621;28;20231;-73
2022/08/30 13:04:50;;;;;;;4.90;2.50;;;;;;;33.25;23.06;98161.44;8482472;27;20257;-73
2022/08/30 13:08:54;;;;;;;5.50;2.67;;;;;;;33.27;23.22;98162.84;8482763;28;20220;-73
2022/08/30 13:13:04;;;;;;;6.33;2.67;;;;;;;33.16;22.31;98160.81;8482646;28;20295;-73
2022/08/30 13:17:19;;;;;;;4.63;2.53;;;;;;;32.78;21.08;98149.88;8482585;28;20241;-73
2022/08/30 13:21:25;;;;;;;5.17;2.57;;;;;;;32.87;23.30;98151.31;8482345;28;20243;-73
2022/08/30 13:25:29;;;;;;;4.43;2.30;;;;;;;32.67;22.19;98149.47;8482015;28;20600;-73
2022/08/30 13:29:36;;;;;;;6.73;2.67;;;;;;;32.59;23.86;98135.44;8482052;28;20417;-72
2022/08/30 13:33:38;;;;;;;4.30;2.40;;;;;;;32.90;22.79;98140.16;8481780;28;20239;-73
2022/08/30 13:37:42;;;;;;;4.17;2.70;;;;;;;33.10;22.64;98146.38;8481789;28;20237;-73
2022/08/30 13:41:52;;;;;;;5.70;3.00;;;;;;;32.99;22.92;98140.78;8481262;28;20497;-72
2022/08/30 13:45:57;;;;;;;5.27;2.67;;;;;;;33.10;23.23;98132.09;8481468;28;20311;-73
2022/08/30 13:50:00;;;;;;;5.07;2.90;;;;;;;33.04;23.25;98130.25;8481525;28;20236;-73
2022/08/30 13:54:03;;;;;;;5.43;3.00;;;;;;;33.09;23.74;98123.25;8481261;28;20235;-73
2022/08/30 13:58:06;;;;;;;3.97;2.50;;;;;;;32.98;23.95;98123.88;8480632;28;20539;-73
2022/08/30 14:02:12;;;;;;;5.23;2.80;;;;;;;32.57;23.93;98119.53;8481051;28;20518;-73
2022/08/30 14:06:15;;;;;;;4.03;2.80;;;;;;;32.60;23.80;98110.28;8481168;28;20240;-73
2022/08/30 14:10:36;;;;;;;4.95;2.83;;;;;;;32.70;24.23;98110.69;8480833;28;20501;-73
2022/08/30 14:14:48;;;;;;;3.23;2.60;;;;;;;32.73;24.10;98104.94;8480356;27;20578;-73
2022/08/30 14:18:57;;;;;;;4.93;2.77;;;;;;;32.47;23.60;98103.03;8480476;28;20261;-74
2022/08/30 14:23:00;;;;;;;4.13;2.70;;;;;;;32.40;23.66;98099.50;8480638;28;20276;-72
2022/08/30 14:27:13;;;;;;;3.47;2.60;;;;;;;32.61;23.46;98098.53;8478520;28;20586;-72
2022/08/30 14:31:19;;;;;;;5.00;2.70;;;;;;;32.51;23.75;98096.22;8479942;28;20240;-73
2022/08/30 14:35:24;;;;;;;5.90;2.73;;;;;;;32.24;23.95;98090.84;8480454;28;20242;-72
2022/08/30 14:39:27;;;;;;;7.60;2.60;;;;;;;31.85;24.04;98086.19;8479910;28;20239;-72
2022/08/30 14:43:30;;;;;;;3.97;2.60;;;;;;;31.68;25.08;98088.38;8479686;28;20227;-73
2022/08/30 14:47:32;;;;;;;5.47;2.67;;;;;;;31.60;24.59;98078.69;8480132;28;20234;-73
2022/08/30 14:51:37;;;;;;;3.67;2.57;;;;;;;31.54;24.77;98068.78;8479917;28;20235;-73
2022/08/30 14:55:41;;;;;;;4.57;2.50;;;;;;;31.72;24.68;98071.75;8479486;28;20299;-73
2022/08/30 14:59:44;;;;;;;3.97;2.70;;;;;;;31.46;24.96;98075.13;8479528;28;20233;-72
2022/08/30 15:03:47;;;;;;;4.83;2.77;;;;;;;31.60;25.68;98069.84;8479261;28;20291;-72
2022/08/30 15:07:54;;;;;;;4.73;2.90;;;;;;;31.52;25.00;98065.50;8479496;28;20232;-72
2022/08/30 15:11:58;;;;;;;4.87;2.40;;;;;;;31.33;24.98;98051.78;8483497;28;20540;-72
2022/08/30 15:16:01;;;;;;;4.57;2.77;;;;;;;31.29;25.50;98058.56;8486301;28;20229;-73
2022/08/30 15:20:04;;;;;;;10.83;3.03;;;;;;;31.11;25.76;98053.75;8486288;28;20241;-73
2022/08/30 15:24:15;;;;;;;4.27;2.80;;;;;;;30.87;25.07;98052.34;8486004;28;20232;-73
2022/08/30 15:28:17;;;;;;;4.53;2.57;;;;;;;30.62;24.75;98045.81;8485840;28;20225;-73
2022/08/30 15:32:21;;;;;;;6.07;2.80;;;;;;;30.45;25.98;98045.25;8485714;28;20236;-73
2022/08/30 15:36:24;;;;;;;4.20;2.53;;;;;;;30.27;25.76;98045.69;8485790;28;20247;-73
2022/08/30 15:40:28;;;;;;;2.73;2.33;;;;;;;30.24;26.06;98044.22;8485583;28;20230;-73
2022/08/30 15:44:32;;;;;;;3.53;2.40;;;;;;;30.16;27.38;98026.50;8485150;28;20231;-73
2022/08/30 15:48:36;;;;;;;4.30;2.77;;;;;;;29.82;26.84;98032.53;8484996;28;20247;-73
2022/08/30 15:52:47;;;;;;;4.63;2.80;;;;;;;29.29;27.04;98023.91;8484585;27;20235;-74
2022/08/30 15:56:57;;;;;;;4.23;2.60;;;;;;;29.05;27.35;98023.97;8484836;28;20338;-74
2022/08/30 16:01:01;;;;;;;5.93;3.00;;;;;;;28.84;27.41;98024.72;8484685;27;20235;-74
2022/08/30 16:05:05;;;;;;;4.43;2.50;;;;;;;28.69;28.26;98021.19;8485018;28;20308;-74
2022/08/30 16:09:08;;;;;;;4.43;2.73;;;;;;;28.72;28.18;98025.34;8484802;28;20229;-74
2022/08/30 16:13:13;;;;;;;3.43;2.53;;;;;;;28.63;28.88;98016.59;8484353;27;20423;-74
2022/08/30 16:17:16;;;;;;;7.53;3.00;;;;;;;28.52;28.42;98023.22;8484100;27;20500;-72
2022/08/30 16:21:22;;;;;;;5.33;2.83;;;;;;;28.33;28.28;98032.50;8483647;28;20302;-74
2022/08/30 16:25:25;;;;;;;5.63;2.73;;;;;;;28.33;28.40;98019.19;8483956;28;20532;-74
2022/08/30 16:29:44;;;;;;;6.37;2.50;;;;;;;28.33;28.73;98029.00;8484113;27;20511;-74
2022/08/30 16:33:48;;;;;;;4.97;2.80;;;;;;;28.22;28.88;98025.75;8483714;27;20245;-74
2022/08/30 16:37:54;;;;;;;3.57;2.50;;;;;;;28.09;28.85;98025.53;8483187;28;20518;-74
2022/08/30 16:41:57;;;;;;;5.30;2.83;;;;;;;28.02;28.69;98029.91;8483613;27;20233;-74
2022/08/30 16:46:02;;;;;;;6.87;3.00;;;;;;;27.92;29.06;98019.50;8483759;28;20234;-75
2022/08/30 16:50:09;;;;;;;4.40;2.90;;;;;;;27.79;29.52;98016.56;8483357;28;20292;-75
2022/08/30 16:54:12;;;;;;;8.10;3.03;;;;;;;27.67;30.32;98011.66;8483365;27;20233;-75
2022/08/30 16:58:15;;;;;;;5.83;3.17;;;;;;;27.49;30.67;98005.78;8483267;28;20234;-75
2022/08/30 17:02:22;;;;;;;7.57;3.27;;;;;;;27.32;30.94;97996.22;8483175;28;20384;-75
2022/08/30 17:06:26;;;;;;;4.23;2.97;;;;;;;27.35;31.99;98007.34;8483062;27;20233;-79
2022/08/30 17:10:29;;;;;;;5.57;4.17;;;;;;;27.27;30.97;98010.06;8482797;27;20232;-73
2022/08/30 17:14:35;;;;;;;7.10;3.87;;;;;;;27.22;30.65;98007.03;8482578;28;20266;-74
2022/08/30 17:18:40;;;;;;;6.00;3.93;;;;;;;27.00;31.89;98001.50;8482570;28;20239;-74
2022/08/30 17:22:44;;;;;;;7.33;3.70;;;;;;;26.99;31.57;98002.47;8482270;27;20237;-74
2022/08/30 17:26:47;;;;;;;5.53;3.57;;;;;;;26.83;32.07;98010.53;8481929;28;20224;-73
2022/08/30 17:30:50;;;;;;;7.93;3.17;;;;;;;26.84;32.36;98012.97;8481883;28;20250;-73
2022/08/30 17:34:55;;;;;;;7.50;4.63;;;;;;;26.71;32.45;98013.53;8481170;28;20256;-73
2022/08/30 17:38:58;;;;;;;6.17;4.47;;;;;;;26.72;32.98;98028.47;8482571;28;20234;-74
2022/08/30 17:43:01;;;;;;;6.03;4.50;;;;;;;26.56;32.99;98028.47;8482284;27;20423;-74
2022/08/30 17:47:04;;;;;;;9.87;4.60;;;;;;;26.64;33.30;98041.75;8481649;27;20532;-73
2022/08/30 17:51:09;;;;;;;8.63;4.57;;;;;;;26.52;33.15;98032.44;8481750;28;20245;-74
2022/08/30 17:55:12;;;;;;;6.30;3.70;;;;;;;26.53;34.04;98044.72;8482123;27;20228;-74
2022/08/30 17:59:17;;;;;;;7.13;3.70;;;;;;;26.42;33.69;98051.19;8481388;28;20540;-74
2022/08/30 18:03:21;;;;;;;7.37;3.70;;;;;;;26.32;34.12;98058.50;8481074;28;20230;-73
2022/08/30 18:07:26;;;;;;;6.33;3.50;;;;;;;26.23;34.52;98062.16;8481162;28;20244;-74
2022/08/30 18:11:29;;;;;;;5.50;2.90;;;;;;;26.18;34.64;98067.13;8481095;28;20515;-74
2022/08/30 18:15:32;;;;;;;10.50;3.70;;;;;;;26.10;35.23;98074.09;8480996;28;20230;-74
2022/08/30 18:19:36;;;;;;;6.10;3.80;;;;;;;25.94;34.60;98071.41;8481329;28;20225;-73
2022/08/30 18:23:49;;;;;;;7.37;3.67;;;;;;;25.83;35.06;98082.28;8480827;28;20238;-73
2022/08/30 18:27:52;;;;;;;6.03;3.40;;;;;;;25.88;35.26;98087.97;8480754;28;20249;-73
2022/08/30 18:32:01;;;;;;;10.17;3.97;;;;;;;25.68;35.70;98090.91;8480954;28;20246;-73
2022/08/30 18:36:04;;;;;;;6.23;3.50;;;;;;;25.61;35.94;98087.22;8480993;28;20233;-73
2022/08/30 18:40:10;;;;;;;4.67;3.30;;;;;;;25.49;36.21;98091.13;8481030;27;20244;-74
2022/08/30 18:44:20;;;;;;;10.50;3.57;;;;;;;25.46;35.84;98097.59;8480731;28;20507;-73
2022/08/30 18:48:31;;;;;;;7.43;2.80;;;;;;;25.39;36.03;98098.41;8480633;28;20409;-73
2022/08/30 18:52:34;;;;;;;7.77;3.30;;;;;;;25.31;35.86;98110.59;8480626;28;20235;-74
2022/08/30 18:56:39;;;;;;;6.33;2.97;;;;;;;25.25;35.76;98115.72;8480680;28;20239;-73
2022/08/30 19:00:46;;;;;;;5.83;3.00;;;;;;;25.29;36.32;98109.13;8480652;28;20344;-73
2022/08/30 19:04:50;;;;;;;7.83;3.07;;;;;;;25.28;36.54;98115.38;8480049;28;20564;-73
2022/08/30 19:08:54;;;;;;;7.07;3.20;;;;;;;25.23;36.41;98121.19;8480460;28;20236;-73
2022/08/30 19:13:01;;;;;;;7.10;3.00;;;;;;;25.21;36.65;98128.44;8480151;28;20363;-73